createdAt,value
2019-05-18T00:00:00.952Z,19.70
2019-05-18T00:01:00.965Z,19.70
2019-05-18T00:02:00.929Z,21.40
2019-05-18T00:03:00.917Z,25.10
2019-05-18T00:04:00.957Z,23.90
2019-05-18T00:05:00.906Z,23.70
2019-05-18T00:06:00.899Z,22.80
2019-05-18T00:07:00.871Z,24.80
2019-05-18T00:08:00.866Z,20.80
2019-05-18T00:09:00.850Z,21.30
2019-05-18T00:10:00.838Z,20.80
2019-05-18T00:11:00.851Z,22.20
2019-05-18T00:12:00.814Z,20.10
2019-05-18T00:13:00.804Z,22.70
2019-05-18T00:14:00.795Z,21.50
2019-05-18T00:15:00.782Z,23.10
2019-05-18T00:16:00.789Z,22.10
2019-05-18T00:17:00.760Z,21.10
2019-05-18T00:18:00.747Z,24.40
2019-05-18T00:19:00.735Z,22.60
2019-05-18T00:20:00.726Z,23.00
2019-05-18T00:21:00.735Z,22.90
2019-05-18T00:22:00.701Z,24.00
2019-05-18T00:23:00.693Z,23.90
2019-05-18T00:24:00.680Z,22.90
2019-05-18T00:25:00.673Z,24.80
2019-05-18T00:26:00.673Z,21.80
2019-05-18T00:27:00.658Z,22.50
2019-05-18T00:28:00.635Z,25.50
2019-05-18T00:29:00.623Z,25.10
2019-05-18T00:30:00.612Z,22.00
2019-05-18T00:31:00.619Z,23.60
2019-05-18T00:32:00.589Z,22.40
2019-05-18T00:33:00.577Z,24.90
2019-05-18T00:34:00.567Z,23.70
2019-05-18T00:35:00.556Z,25.60
2019-05-18T00:36:00.562Z,25.20
2019-05-18T00:37:00.534Z,26.10
2019-05-18T00:38:00.528Z,25.40
2019-05-18T00:39:00.511Z,26.60
2019-05-18T00:40:00.499Z,24.70
2019-05-18T00:41:00.514Z,25.00
2019-05-18T00:42:00.475Z,23.80
2019-05-18T00:43:00.465Z,24.00
2019-05-18T00:44:00.458Z,24.80
2019-05-18T00:45:00.442Z,24.90
2019-05-18T00:46:00.430Z,24.60
2019-05-18T00:47:00.437Z,24.40
2019-05-18T00:48:00.412Z,24.80
2019-05-18T00:49:00.400Z,24.00
2019-05-18T00:50:00.386Z,24.20
2019-05-18T00:51:00.374Z,24.10
2019-05-18T00:52:00.399Z,24.20
2019-05-18T00:53:00.358Z,23.00
2019-05-18T00:54:00.340Z,24.40
2019-05-18T00:55:00.336Z,23.60
2019-05-18T00:56:00.327Z,23.60
2019-05-18T00:57:00.328Z,26.10
2019-05-18T00:58:00.315Z,24.40
2019-05-18T00:59:00.289Z,23.20
2019-05-18T01:00:00.272Z,23.90
2019-05-18T01:01:00.263Z,24.40
2019-05-18T01:02:00.250Z,23.60
2019-05-18T01:03:00.268Z,23.90
2019-05-18T01:04:00.229Z,27.20
2019-05-18T01:05:00.219Z,23.70
2019-05-18T01:06:00.212Z,25.60
2019-05-18T01:07:00.194Z,26.20
2019-05-18T01:08:00.185Z,23.60
2019-05-18T01:09:00.201Z,26.40
2019-05-18T01:10:00.164Z,25.60
2019-05-18T01:11:00.153Z,25.00
2019-05-18T01:12:00.152Z,25.50
2019-05-18T01:13:00.128Z,24.50
2019-05-18T01:14:00.117Z,25.20
2019-05-18T01:15:00.135Z,23.80
2019-05-18T01:16:00.094Z,25.80
2019-05-18T01:17:00.086Z,24.40
2019-05-18T01:18:02.318Z,23.00
2019-05-18T01:19:00.059Z,23.80
2019-05-18T01:20:00.126Z,25.80
2019-05-18T01:21:00.040Z,27.10
2019-05-18T01:22:00.026Z,25.10
2019-05-18T01:23:00.018Z,24.50
2019-05-18T01:24:00.003Z,24.90
2019-05-18T01:24:59.991Z,24.90
2019-05-18T01:26:00.019Z,25.20
2019-05-18T01:26:59.969Z,24.60
2019-05-18T01:27:59.957Z,23.10
2019-05-18T01:28:59.949Z,23.60
2019-05-18T01:29:59.944Z,26.30
2019-05-18T01:30:59.925Z,29.00
2019-05-18T01:31:59.957Z,25.10
2019-05-18T01:32:59.902Z,27.30
2019-05-18T01:33:59.893Z,25.50
2019-05-18T01:34:59.878Z,23.90
2019-05-18T01:35:59.867Z,24.30
2019-05-18T01:36:59.888Z,23.20
2019-05-18T01:37:59.848Z,22.20
2019-05-18T01:38:59.845Z,24.10
2019-05-18T01:39:59.822Z,22.50
2019-05-18T01:40:59.811Z,23.30
2019-05-18T01:41:59.817Z,23.80
2019-05-18T01:42:59.807Z,25.20
2019-05-18T01:43:59.777Z,24.30
2019-05-18T01:44:59.765Z,24.00
2019-05-18T01:45:59.753Z,22.50
2019-05-18T01:46:59.743Z,21.90
2019-05-18T01:48:12.741Z,23.60
2019-05-18T01:49:00.718Z,24.00
2019-05-18T01:49:59.711Z,21.50
2019-05-18T01:50:59.697Z,23.20
2019-05-18T01:51:59.685Z,22.00
2019-05-18T01:52:59.674Z,22.40
2019-05-18T01:53:59.689Z,22.20
2019-05-18T01:54:59.651Z,22.90
2019-05-18T01:55:59.643Z,23.70
2019-05-18T01:56:59.631Z,23.40
2019-05-18T01:57:59.617Z,22.20
2019-05-18T01:58:59.607Z,21.80
2019-05-18T01:59:59.618Z,25.80
2019-05-18T02:00:59.583Z,21.90
2019-05-18T02:01:59.587Z,22.20
2019-05-18T02:02:59.562Z,21.10
2019-05-18T02:03:59.548Z,22.20
2019-05-18T02:04:59.554Z,24.20
2019-05-18T02:05:59.528Z,20.60
2019-05-18T02:06:59.516Z,20.90
2019-05-18T02:07:59.505Z,21.80
2019-05-18T02:08:59.491Z,20.50
2019-05-18T02:09:59.509Z,22.10
2019-05-18T02:10:59.475Z,21.10
2019-05-18T02:11:59.459Z,21.60
2019-05-18T02:12:59.452Z,20.00
2019-05-18T02:13:59.435Z,21.10
2019-05-18T02:14:59.426Z,21.10
2019-05-18T02:15:59.447Z,22.20
2019-05-18T02:16:59.401Z,21.80
2019-05-18T02:17:59.398Z,21.30
2019-05-18T02:18:59.383Z,21.30
2019-05-18T02:19:59.367Z,22.30
2019-05-18T02:20:59.357Z,20.50
2019-05-18T02:21:59.361Z,20.50
2019-05-18T02:22:59.333Z,21.10
2019-05-18T02:23:59.328Z,23.20
2019-05-18T02:24:59.308Z,20.40
2019-05-18T02:25:59.298Z,20.80
2019-05-18T02:26:59.307Z,20.40
2019-05-18T02:27:59.274Z,19.00
2019-05-18T02:28:59.264Z,20.70
2019-05-18T02:29:59.252Z,18.90
2019-05-18T02:30:59.239Z,19.20
2019-05-18T02:31:59.254Z,18.40
2019-05-18T02:32:59.219Z,19.90
2019-05-18T02:33:59.206Z,18.00
2019-05-18T02:34:59.202Z,18.80
2019-05-18T02:35:59.187Z,19.50
2019-05-18T02:36:59.171Z,20.00
2019-05-18T02:37:59.190Z,20.00
2019-05-18T02:38:59.151Z,19.60
2019-05-18T02:39:59.137Z,17.30
2019-05-18T02:40:59.125Z,17.90
2019-05-18T02:41:59.113Z,17.50
2019-05-18T02:42:59.104Z,18.70
2019-05-18T02:43:59.119Z,20.00
2019-05-18T02:44:59.090Z,19.50
2019-05-18T02:45:59.083Z,20.20
2019-05-18T02:46:59.058Z,19.60
2019-05-18T02:47:59.051Z,19.10
2019-05-18T02:48:59.032Z,19.10
2019-05-18T02:49:59.038Z,18.10
2019-05-18T02:50:59.014Z,17.80
2019-05-18T02:51:58.997Z,18.60
2019-05-18T02:52:58.988Z,18.00
2019-05-18T02:53:58.975Z,17.20
2019-05-18T02:54:58.991Z,18.40
2019-05-18T02:55:58.953Z,18.10
2019-05-18T02:56:58.946Z,20.10
2019-05-18T02:57:58.929Z,16.40
2019-05-18T02:58:58.923Z,17.60
2019-05-18T02:59:58.906Z,18.00
2019-05-18T03:00:58.921Z,17.60
2019-05-18T03:01:58.883Z,16.80
2019-05-18T03:02:58.876Z,17.10
2019-05-18T03:03:58.862Z,16.70
2019-05-18T03:04:58.850Z,17.70
2019-05-18T03:05:58.841Z,18.90
2019-05-18T03:06:58.849Z,17.70
2019-05-18T03:07:58.833Z,16.60
2019-05-18T03:08:58.813Z,16.90
2019-05-18T03:09:58.792Z,17.20
2019-05-18T03:10:58.781Z,16.70
2019-05-18T03:11:58.802Z,17.10
2019-05-18T03:12:58.757Z,18.70
2019-05-18T03:13:58.748Z,17.80
2019-05-18T03:14:58.736Z,19.80
2019-05-18T03:15:58.720Z,19.90
2019-05-18T03:16:58.714Z,16.20
2019-05-18T03:17:58.728Z,16.70
2019-05-18T03:19:08.320Z,18.40
2019-05-18T03:19:59.676Z,16.20
2019-05-18T03:20:58.669Z,18.20
2019-05-18T03:22:00.988Z,19.90
2019-05-18T03:22:58.641Z,17.90
2019-05-18T03:23:58.644Z,16.20
2019-05-18T03:24:58.615Z,17.70
2019-05-18T03:25:58.609Z,18.70
2019-05-18T03:26:58.594Z,18.20
2019-05-18T03:27:58.585Z,20.10
2019-05-18T03:28:58.601Z,18.40
2019-05-18T03:29:58.564Z,17.00
2019-05-18T03:30:58.553Z,19.30
2019-05-18T03:31:58.557Z,19.10
2019-05-18T03:32:58.527Z,18.60
2019-05-18T03:33:58.517Z,18.30
2019-05-18T03:34:58.549Z,19.00
2019-05-18T03:35:58.491Z,19.00
2019-05-18T03:36:58.479Z,18.00
2019-05-18T03:37:58.474Z,18.10
2019-05-18T03:38:58.467Z,17.80
2019-05-18T03:39:58.462Z,19.90
2019-05-18T03:40:58.466Z,17.00
2019-05-18T03:41:58.425Z,18.90
2019-05-18T03:42:58.410Z,18.50
2019-05-18T03:43:58.403Z,17.50
2019-05-18T03:44:58.389Z,17.10
2019-05-18T03:45:58.377Z,17.50
2019-05-18T03:46:58.382Z,16.50
2019-05-18T03:47:58.365Z,17.60
2019-05-18T03:48:58.343Z,18.40
2019-05-18T03:49:58.333Z,16.70
2019-05-18T03:50:58.322Z,18.00
2019-05-18T03:51:58.349Z,16.50
2019-05-18T03:52:58.299Z,18.30
2019-05-18T03:53:58.284Z,18.70
2019-05-18T03:54:58.285Z,19.00
2019-05-18T03:55:58.262Z,18.60
2019-05-18T03:56:58.260Z,17.30
2019-05-18T03:57:58.268Z,18.10
2019-05-18T03:58:58.233Z,15.80
2019-05-18T03:59:58.214Z,16.70
2019-05-18T04:00:58.206Z,17.00
2019-05-18T04:01:58.194Z,17.40
2019-05-18T04:02:58.185Z,16.90
2019-05-18T04:03:58.194Z,18.20
2019-05-18T04:04:58.160Z,16.90
2019-05-18T04:05:58.152Z,18.70
2019-05-18T04:06:58.137Z,16.50
2019-05-18T04:07:58.127Z,16.20
2019-05-18T04:08:58.151Z,16.80
2019-05-18T04:09:58.098Z,18.00
2019-05-18T04:10:58.096Z,16.20
2019-05-18T04:11:58.085Z,16.10
2019-05-18T04:12:58.068Z,16.40
2019-05-18T04:13:58.055Z,16.20
2019-05-18T04:14:58.073Z,16.50
2019-05-18T04:15:58.030Z,17.50
2019-05-18T04:16:58.022Z,17.60
2019-05-18T04:17:58.011Z,16.70
2019-05-18T04:18:58.002Z,16.00
2019-05-18T04:19:57.999Z,16.70
2019-05-18T04:20:57.997Z,19.60
2019-05-18T04:21:57.974Z,18.00
2019-05-18T04:22:57.954Z,15.50
2019-05-18T04:23:57.939Z,17.40
2019-05-18T04:24:57.926Z,15.80
2019-05-18T04:25:57.945Z,15.90
2019-05-18T04:26:57.911Z,19.80
2019-05-18T04:27:57.897Z,15.20
2019-05-18T04:28:57.886Z,18.10
2019-05-18T04:29:57.868Z,15.50
2019-05-18T04:30:57.861Z,15.50
2019-05-18T04:31:57.877Z,16.80
2019-05-18T04:32:57.837Z,15.70
2019-05-18T04:33:57.823Z,16.50
2019-05-18T04:34:57.813Z,16.30
2019-05-18T04:35:57.813Z,15.10
2019-05-18T04:36:57.790Z,17.00
2019-05-18T04:37:57.815Z,15.50
2019-05-18T04:38:57.828Z,17.20
2019-05-18T04:39:57.754Z,17.70
2019-05-18T04:40:57.745Z,15.20
2019-05-18T04:41:57.734Z,15.40
2019-05-18T04:42:57.722Z,15.60
2019-05-18T04:43:57.727Z,15.10
2019-05-18T04:44:57.697Z,17.60
2019-05-18T04:45:57.694Z,15.70
2019-05-18T04:46:57.681Z,16.20
2019-05-18T04:47:57.667Z,15.60
2019-05-18T04:48:57.685Z,16.80
2019-05-18T04:50:05.224Z,16.60
2019-05-18T04:50:58.630Z,15.80
2019-05-18T04:51:57.620Z,16.30
2019-05-18T04:52:57.618Z,15.90
2019-05-18T04:53:57.595Z,15.80
2019-05-18T04:54:57.616Z,16.30
2019-05-18T04:55:57.573Z,16.00
2019-05-18T04:56:57.562Z,15.20
2019-05-18T04:57:57.549Z,15.80
2019-05-18T04:58:57.541Z,16.30
2019-05-18T04:59:57.525Z,16.20
2019-05-18T05:00:57.532Z,16.00
2019-05-18T05:01:57.511Z,15.20
2019-05-18T05:02:57.492Z,16.20
2019-05-18T05:03:57.484Z,15.70
2019-05-18T05:04:57.470Z,15.60
2019-05-18T05:05:57.486Z,15.90
2019-05-18T05:06:57.454Z,14.40
2019-05-18T05:07:57.437Z,17.40
2019-05-18T05:08:57.431Z,17.40
2019-05-18T05:09:57.425Z,15.20
2019-05-18T05:10:57.402Z,15.80
2019-05-18T05:11:57.423Z,15.90
2019-05-18T05:12:57.379Z,14.90
2019-05-18T05:13:57.372Z,17.00
2019-05-18T05:14:57.360Z,15.70
2019-05-18T05:15:57.344Z,15.30
2019-05-18T05:16:57.334Z,15.70
2019-05-18T05:17:57.345Z,16.80
2019-05-18T05:18:57.312Z,19.00
2019-05-18T05:19:57.310Z,17.50
2019-05-18T05:20:57.288Z,15.00
2019-05-18T05:21:57.287Z,15.40
2019-05-18T05:22:57.293Z,15.70
2019-05-18T05:23:57.254Z,15.00
2019-05-18T05:24:57.243Z,14.60
2019-05-18T05:25:57.232Z,15.60
2019-05-18T05:26:57.221Z,15.90
2019-05-18T05:27:57.209Z,15.60
2019-05-18T05:28:57.229Z,15.90
2019-05-18T05:29:57.195Z,15.60
2019-05-18T05:30:57.175Z,16.90
2019-05-18T05:31:57.172Z,16.10
2019-05-18T05:32:57.154Z,16.00
2019-05-18T05:33:57.198Z,15.80
2019-05-18T05:34:57.159Z,15.10
2019-05-18T05:35:57.119Z,16.70
2019-05-18T05:36:57.108Z,15.60
2019-05-18T05:37:57.098Z,15.20
2019-05-18T05:38:57.085Z,15.20
2019-05-18T05:39:57.078Z,16.30
2019-05-18T05:40:57.089Z,15.80
2019-05-18T05:41:57.052Z,15.30
2019-05-18T05:42:57.042Z,15.30
2019-05-18T05:43:57.032Z,16.00
2019-05-18T05:44:57.020Z,15.30
2019-05-18T05:45:57.040Z,16.00
2019-05-18T05:46:56.997Z,15.30
2019-05-18T05:47:56.989Z,16.30
2019-05-18T05:48:56.979Z,15.00
2019-05-18T05:49:56.970Z,15.90
2019-05-18T05:50:56.951Z,15.80
2019-05-18T05:51:56.967Z,16.20
2019-05-18T05:52:56.940Z,16.70
2019-05-18T05:53:56.917Z,15.60
2019-05-18T05:54:56.906Z,15.20
2019-05-18T05:55:56.894Z,16.80
2019-05-18T05:56:56.883Z,15.40
2019-05-18T05:57:56.889Z,15.00
2019-05-18T05:58:56.865Z,15.90
2019-05-18T05:59:56.855Z,16.50
2019-05-18T06:00:56.838Z,15.50
2019-05-18T06:01:56.828Z,15.20
2019-05-18T06:02:56.845Z,15.00
2019-05-18T06:03:56.803Z,15.80
2019-05-18T06:04:56.792Z,15.10
2019-05-18T06:05:56.782Z,15.80
2019-05-18T06:06:56.772Z,14.70
2019-05-18T06:07:56.758Z,16.20
2019-05-18T06:08:56.787Z,16.80
2019-05-18T06:09:56.734Z,14.70
2019-05-18T06:10:56.729Z,15.40
2019-05-18T06:11:56.713Z,15.00
2019-05-18T06:12:56.707Z,14.80
2019-05-18T06:13:56.691Z,15.00
2019-05-18T06:14:56.707Z,15.40
2019-05-18T06:15:56.676Z,15.60
2019-05-18T06:16:56.655Z,15.30
2019-05-18T06:17:56.645Z,15.60
2019-05-18T06:18:56.632Z,15.10
2019-05-18T06:19:56.629Z,15.30
2019-05-18T06:20:56.644Z,15.90
2019-05-18T06:21:56.609Z,15.70
2019-05-18T06:22:56.589Z,15.10
2019-05-18T06:23:56.576Z,15.30
2019-05-18T06:24:56.569Z,16.80
2019-05-18T06:25:56.558Z,14.90
2019-05-18T06:26:56.572Z,16.00
2019-05-18T06:27:56.532Z,14.80
2019-05-18T06:28:56.519Z,15.10
2019-05-18T06:29:56.508Z,15.00
2019-05-18T06:30:56.498Z,14.40
2019-05-18T06:31:56.487Z,15.10
2019-05-18T06:32:56.491Z,14.70
2019-05-18T06:33:56.463Z,15.50
2019-05-18T06:34:56.452Z,15.10
2019-05-18T06:35:56.445Z,15.10
2019-05-18T06:36:56.433Z,15.60
2019-05-18T06:37:56.445Z,16.10
2019-05-18T06:38:56.408Z,15.20
2019-05-18T06:39:56.394Z,15.90
2019-05-18T06:40:56.385Z,14.70
2019-05-18T06:41:56.370Z,14.30
2019-05-18T06:42:56.358Z,14.70
2019-05-18T06:43:58.427Z,14.50
2019-05-18T06:44:56.336Z,15.10
2019-05-18T06:45:56.325Z,13.80
2019-05-18T06:46:56.314Z,13.90
2019-05-18T06:47:56.303Z,14.20
2019-05-18T06:48:56.293Z,13.90
2019-05-18T06:49:56.300Z,14.40
2019-05-18T06:51:06.867Z,14.60
2019-05-18T06:51:57.261Z,14.40
2019-05-18T06:52:56.245Z,14.00
2019-05-18T06:53:56.236Z,14.10
2019-05-18T06:54:56.251Z,14.90
2019-05-18T06:55:56.210Z,13.90
2019-05-18T06:56:56.198Z,13.90
2019-05-18T06:57:56.678Z,14.30
2019-05-18T06:58:56.175Z,15.50
2019-05-18T06:59:56.167Z,14.30
2019-05-18T07:00:56.180Z,13.60
2019-05-18T07:01:56.145Z,13.20
2019-05-18T07:02:56.130Z,13.90
2019-05-18T07:03:57.018Z,13.90
2019-05-18T07:04:56.112Z,13.60
2019-05-18T07:05:56.096Z,14.10
2019-05-18T07:06:56.113Z,14.80
2019-05-18T07:07:56.073Z,13.30
2019-05-18T07:08:56.060Z,13.30
2019-05-18T07:09:56.051Z,13.40
2019-05-18T07:10:56.039Z,13.20
2019-05-18T07:11:56.319Z,13.50
2019-05-18T07:12:56.046Z,13.50
2019-05-18T07:13:56.008Z,13.80
2019-05-18T07:14:55.992Z,14.40
2019-05-18T07:15:55.982Z,13.90
2019-05-18T07:16:55.970Z,13.30
2019-05-18T07:17:55.958Z,13.60
2019-05-18T07:18:55.983Z,13.40
2019-05-18T07:19:55.937Z,13.20
2019-05-18T07:20:55.932Z,13.30
2019-05-18T07:21:55.923Z,12.40
2019-05-18T07:22:55.906Z,12.40
2019-05-18T07:23:55.892Z,13.40
2019-05-18T07:24:55.898Z,13.50
2019-05-18T07:25:55.870Z,12.50
2019-05-18T07:26:55.855Z,12.80
2019-05-18T07:27:55.845Z,12.70
2019-05-18T07:28:55.872Z,13.20
2019-05-18T07:29:55.853Z,13.60
2019-05-18T07:30:55.815Z,13.60
2019-05-18T07:31:55.803Z,12.90
2019-05-18T07:32:55.789Z,13.10
2019-05-18T07:33:55.784Z,13.00
2019-05-18T07:34:55.782Z,12.50
2019-05-18T07:35:55.785Z,13.20
2019-05-18T07:36:55.744Z,13.00
2019-05-18T07:37:55.735Z,14.10
2019-05-18T07:38:55.730Z,12.80
2019-05-18T07:39:55.711Z,12.50
2019-05-18T07:40:55.699Z,12.70
2019-05-18T07:41:55.707Z,12.40
2019-05-18T07:42:55.677Z,13.20
2019-05-18T07:43:55.663Z,12.90
2019-05-18T07:44:55.654Z,13.00
2019-05-18T07:45:55.645Z,12.60
2019-05-18T07:46:56.041Z,13.30
2019-05-18T07:47:55.630Z,13.70
2019-05-18T07:48:55.608Z,13.10
2019-05-18T07:49:55.597Z,13.40
2019-05-18T07:50:55.592Z,13.20
2019-05-18T07:51:55.574Z,12.20
2019-05-18T07:52:55.592Z,13.30
2019-05-18T07:53:55.553Z,13.60
2019-05-18T07:54:55.540Z,13.50
2019-05-18T07:55:55.530Z,13.60
2019-05-18T07:56:55.525Z,13.20
2019-05-18T07:57:55.506Z,13.10
2019-05-18T07:58:55.535Z,13.50
2019-05-18T07:59:55.485Z,13.30
2019-05-18T08:00:55.474Z,13.10
2019-05-18T08:01:55.466Z,14.50
2019-05-18T08:02:55.452Z,13.40
2019-05-18T08:03:55.440Z,13.90
2019-05-18T08:04:55.450Z,13.30
2019-05-18T08:05:55.417Z,13.00
2019-05-18T08:06:55.409Z,13.10
2019-05-18T08:07:55.401Z,13.00
2019-05-18T08:08:55.387Z,13.20
2019-05-18T08:09:55.408Z,13.70
2019-05-18T08:10:55.364Z,12.80
2019-05-18T08:11:55.351Z,13.10
2019-05-18T08:12:55.339Z,13.30
2019-05-18T08:13:55.331Z,14.20
2019-05-18T08:14:55.320Z,12.20
2019-05-18T08:15:55.336Z,11.70
2019-05-18T08:16:55.293Z,12.90
2019-05-18T08:17:55.284Z,13.20
2019-05-18T08:18:58.031Z,12.80
2019-05-18T08:19:55.303Z,11.70
2019-05-18T08:20:55.250Z,13.60
2019-05-18T08:21:55.257Z,12.50
2019-05-18T08:22:55.225Z,12.90
2019-05-18T08:23:55.215Z,13.90
2019-05-18T08:24:55.204Z,12.80
2019-05-18T08:25:55.191Z,12.70
2019-05-18T08:26:55.210Z,12.50
2019-05-18T08:27:55.189Z,12.00
2019-05-18T08:28:55.158Z,12.50
2019-05-18T08:29:55.149Z,12.50
2019-05-18T08:30:55.145Z,13.10
2019-05-18T08:31:55.133Z,11.70
2019-05-18T08:32:55.147Z,12.20
2019-05-18T08:33:55.100Z,19.80
2019-05-18T08:34:55.087Z,12.60
2019-05-18T08:35:55.075Z,12.80
2019-05-18T08:36:55.067Z,12.70
2019-05-18T08:37:55.055Z,13.50
2019-05-18T08:38:55.059Z,12.30
2019-05-18T08:39:55.033Z,12.80
2019-05-18T08:40:55.027Z,13.50
2019-05-18T08:41:55.010Z,13.50
2019-05-18T08:42:55.000Z,12.20
2019-05-18T08:43:55.026Z,12.90
2019-05-18T08:44:54.976Z,12.70
2019-05-18T08:45:54.965Z,11.90
2019-05-18T08:46:54.953Z,11.50
2019-05-18T08:47:54.943Z,12.60
2019-05-18T08:48:54.935Z,12.90
2019-05-18T08:49:54.949Z,13.30
2019-05-18T08:50:54.916Z,13.10
2019-05-18T08:52:07.550Z,12.30
2019-05-18T08:52:55.887Z,13.10
2019-05-18T08:53:54.877Z,12.90
2019-05-18T08:54:54.862Z,12.80
2019-05-18T08:55:54.880Z,13.10
2019-05-18T08:56:54.846Z,13.30
2019-05-18T08:57:54.836Z,18.30
2019-05-18T08:58:54.823Z,12.80
2019-05-18T08:59:54.806Z,12.70
2019-05-18T09:00:54.797Z,12.70
2019-05-18T09:01:54.802Z,12.90
2019-05-18T09:02:54.774Z,13.00
2019-05-18T09:03:54.766Z,14.90
2019-05-18T09:04:54.750Z,15.40
2019-05-18T09:05:54.738Z,15.40
2019-05-18T09:06:54.756Z,13.50
2019-05-18T09:07:54.718Z,13.20
2019-05-18T09:08:54.713Z,13.50
2019-05-18T09:09:54.714Z,13.90
2019-05-18T09:10:54.683Z,13.30
2019-05-18T09:11:54.673Z,17.60
2019-05-18T09:12:54.691Z,20.30
2019-05-18T09:13:54.653Z,12.70
2019-05-18T09:14:54.638Z,13.20
2019-05-18T09:15:54.633Z,16.20
2019-05-18T09:16:54.617Z,13.70
2019-05-18T09:17:54.607Z,12.80
2019-05-18T09:18:54.612Z,14.00
2019-05-18T09:19:54.581Z,13.10
2019-05-18T09:20:54.571Z,13.10
2019-05-18T09:21:54.702Z,12.90
2019-05-18T09:22:54.545Z,13.20
2019-05-18T09:23:54.566Z,12.50
2019-05-18T09:24:54.526Z,12.60
2019-05-18T09:25:54.518Z,13.50
2019-05-18T09:26:54.502Z,14.20
2019-05-18T09:27:54.527Z,40.80
2019-05-18T09:28:54.479Z,12.70
2019-05-18T09:29:54.499Z,17.80
2019-05-18T09:30:54.464Z,18.50
2019-05-18T09:31:54.450Z,12.00
2019-05-18T09:32:54.436Z,12.60
2019-05-18T09:33:54.423Z,15.10
2019-05-18T09:34:54.411Z,13.50
2019-05-18T09:35:54.420Z,13.10
2019-05-18T09:36:54.394Z,12.50
2019-05-18T09:37:54.378Z,11.90
2019-05-18T09:38:54.367Z,12.10
2019-05-18T09:39:54.355Z,13.80
2019-05-18T09:40:54.373Z,13.50
2019-05-18T09:41:54.333Z,12.70
2019-05-18T09:42:54.320Z,12.10
2019-05-18T09:43:54.308Z,11.50
2019-05-18T09:44:54.297Z,12.40
2019-05-18T09:45:54.290Z,12.50
2019-05-18T09:46:54.304Z,11.60
2019-05-18T09:47:54.265Z,11.60
2019-05-18T09:48:54.256Z,11.90
2019-05-18T09:49:54.241Z,11.90
2019-05-18T09:50:54.232Z,12.60
2019-05-18T09:51:54.225Z,12.20
2019-05-18T09:52:54.257Z,12.20
2019-05-18T09:53:54.198Z,11.90
2019-05-18T09:54:54.184Z,11.70
2019-05-18T09:55:54.173Z,12.40
2019-05-18T09:56:54.164Z,11.30
2019-05-18T09:57:54.150Z,16.20
2019-05-18T09:58:54.156Z,13.70
2019-05-18T09:59:54.127Z,16.00
2019-05-18T10:00:54.115Z,12.10
2019-05-18T10:01:54.105Z,12.30
2019-05-18T10:02:54.095Z,11.60
2019-05-18T10:03:54.109Z,16.30
2019-05-18T10:04:54.081Z,35.00
2019-05-18T10:05:54.058Z,29.40
2019-05-18T10:06:54.152Z,17.00
2019-05-18T10:07:54.036Z,21.30
2019-05-18T10:08:54.025Z,13.90
2019-05-18T10:09:54.054Z,13.80
2019-05-18T10:10:54.004Z,11.90
2019-05-18T10:11:53.990Z,14.30
2019-05-18T10:12:53.978Z,13.70
2019-05-18T10:13:53.967Z,13.20
2019-05-18T10:14:53.956Z,13.30
2019-05-18T10:15:53.965Z,14.30
2019-05-18T10:16:53.934Z,13.70
2019-05-18T10:17:53.926Z,13.30
2019-05-18T10:18:53.911Z,11.90
2019-05-18T10:19:53.900Z,11.90
2019-05-18T10:20:53.917Z,11.90
2019-05-18T10:21:53.876Z,11.70
2019-05-18T10:23:11.408Z,14.00
2019-05-18T10:23:54.851Z,12.80
2019-05-18T10:24:53.845Z,13.50
2019-05-18T10:25:53.842Z,12.70
2019-05-18T10:26:53.850Z,12.40
2019-05-18T10:27:53.812Z,12.40
2019-05-18T10:28:53.798Z,11.90
2019-05-18T10:29:53.785Z,12.50
2019-05-18T10:30:53.776Z,12.30
2019-05-18T10:31:53.765Z,11.40
2019-05-18T10:32:53.780Z,10.70
2019-05-18T10:33:53.744Z,11.00
2019-05-18T10:34:53.730Z,10.70
2019-05-18T10:35:53.718Z,10.80
2019-05-18T10:36:53.707Z,10.50
2019-05-18T10:37:53.701Z,11.70
2019-05-18T10:38:53.719Z,11.30
2019-05-18T10:39:53.674Z,11.50
2019-05-18T10:40:53.662Z,11.40
2019-05-18T10:41:53.649Z,11.00
2019-05-18T10:42:53.642Z,10.40
2019-05-18T10:43:53.636Z,11.60
2019-05-18T10:44:53.649Z,11.10
2019-05-18T10:45:53.605Z,11.20
2019-05-18T10:46:53.597Z,11.80
2019-05-18T10:47:53.585Z,11.00
2019-05-18T10:48:53.581Z,11.40
2019-05-18T10:49:53.566Z,11.20
2019-05-18T10:50:53.568Z,11.50
2019-05-18T10:51:53.539Z,11.10
2019-05-18T10:52:53.527Z,11.40
2019-05-18T10:53:53.518Z,11.00
2019-05-18T10:54:53.503Z,11.50
2019-05-18T10:55:53.532Z,14.80
2019-05-18T10:56:53.489Z,11.00
2019-05-18T10:57:53.485Z,11.00
2019-05-18T10:58:53.490Z,10.40
2019-05-18T10:59:53.461Z,10.30
2019-05-18T11:00:53.455Z,10.60
2019-05-18T11:01:53.468Z,10.50
2019-05-18T11:02:53.417Z,9.70
2019-05-18T11:03:53.404Z,10.60
2019-05-18T11:04:53.393Z,10.30
2019-05-18T11:05:53.384Z,10.40
2019-05-18T11:06:53.380Z,9.90
2019-05-18T11:07:53.381Z,10.40
2019-05-18T11:08:53.349Z,9.90
2019-05-18T11:09:53.337Z,10.50
2019-05-18T11:10:53.325Z,10.60
2019-05-18T11:11:53.315Z,11.20
2019-05-18T11:12:53.339Z,10.40
2019-05-18T11:13:53.292Z,10.20
2019-05-18T11:14:53.282Z,9.90
2019-05-18T11:15:53.299Z,9.70
2019-05-18T11:16:53.258Z,9.30
2019-05-18T11:17:53.254Z,8.90
2019-05-18T11:18:53.268Z,9.40
2019-05-18T11:19:53.224Z,9.60
2019-05-18T11:20:53.212Z,8.10
2019-05-18T11:21:53.208Z,8.50
2019-05-18T11:22:53.189Z,8.70
2019-05-18T11:23:53.176Z,8.40
2019-05-18T11:24:53.199Z,8.60
2019-05-18T11:25:53.154Z,12.70
2019-05-18T11:26:53.148Z,9.10
2019-05-18T11:27:53.148Z,8.30
2019-05-18T11:28:53.149Z,8.60
2019-05-18T11:29:53.117Z,8.60
2019-05-18T11:30:53.131Z,10.60
2019-05-18T11:31:53.089Z,8.50
2019-05-18T11:32:53.081Z,9.20
2019-05-18T11:33:53.600Z,9.90
2019-05-18T11:34:53.069Z,8.60
2019-05-18T11:35:53.046Z,9.10
2019-05-18T11:36:53.063Z,8.80
2019-05-18T11:37:53.021Z,8.30
2019-05-18T11:38:53.010Z,10.00
2019-05-18T11:39:52.999Z,8.10
2019-05-18T11:40:52.987Z,8.60
2019-05-18T11:41:52.977Z,9.40
2019-05-18T11:42:52.982Z,9.30
2019-05-18T11:43:52.956Z,8.30
2019-05-18T11:44:52.943Z,8.40
2019-05-18T11:45:52.933Z,7.90
2019-05-18T11:46:52.920Z,8.40
2019-05-18T11:47:52.941Z,7.50
2019-05-18T11:48:52.903Z,7.40
2019-05-18T11:49:52.926Z,6.90
2019-05-18T11:50:52.879Z,6.60
2019-05-18T11:51:52.865Z,7.10
2019-05-18T11:52:52.858Z,8.80
2019-05-18T11:53:58.284Z,6.60
2019-05-18T11:54:53.838Z,6.40
2019-05-18T11:55:52.821Z,5.50
2019-05-18T11:56:52.819Z,5.80
2019-05-18T11:57:52.799Z,6.20
2019-05-18T11:58:52.787Z,6.10
2019-05-18T11:59:52.798Z,5.60
2019-05-18T12:00:52.767Z,7.80
2019-05-18T12:01:52.755Z,7.80
2019-05-18T12:02:52.744Z,6.30
2019-05-18T12:03:52.736Z,6.20
2019-05-18T12:04:52.747Z,5.90
2019-05-18T12:05:52.713Z,6.20
2019-05-18T12:06:52.704Z,6.30
2019-05-18T12:07:52.688Z,6.10
2019-05-18T12:08:52.677Z,5.90
2019-05-18T12:09:52.668Z,5.50
2019-05-18T12:10:52.684Z,6.30
2019-05-18T12:11:52.645Z,6.10
2019-05-18T12:12:52.640Z,5.80
